Storm Events Database

Event Details

Event Thunderstorm Wind
Magnitude 50 kts.
State GEORGIA
County/Area MERIWETHER
WFO FFC
Report Source Emergency Manager
NCDC Data Source CSV
Begin Date 2007-08-17 16:25:00.0 EST-5
Begin Location 2W GREENVILLE
Begin Lat/Lon 33.03/-84.75
End Date 2007-08-17 16:35:00.0 EST-5
End Location 6W GREENVILLE
End Lat/Lon 33.03/-84.82
Deaths Direct/Indirect 0/0 (fatality details below, when available...)
Injuries Direct/Indirect 0/0
Property Damage 2.00K
Crop Damage 0.00K
Episode Narrative An unusual mid-August cold front combined with antecedent very hot temperatures in the 95 to 100 degree range and northwest flow aloft to create a very unstable atmosphere. Thunderstorms developed during mid-afternoon in northwest and west central Georgia and quickly became severe. Thunderstorm wind damage was the most common occurrence with these storms, but some hail was reported with some of the storms, especially those near the beginning of the event. Frequent cloud-to-ground lightning was observed with many of the storms.
Event Narrative The Meriwether County Emergency Management Director and 911 Center reported that several trees were blown down west of Greenville. Some power lines were also down in the area.


     ‚Äč



All events for this episode:

Location County/Zone St. Date Time T.Z. Type Mag Dth Inj PrD CrD
Totals: 0 0 278.50K 0.00K
MT VERNON WALTON CO. GA 08/17/2007 14:40 EST-5 Hail 1.25 in. 0 0 0.00K 0.00K
NEW HOPE PAULDING CO. GA 08/17/2007 14:50 EST-5 Hail 0.75 in. 0 0 0.00K 0.00K
STILESBORO BARTOW CO. GA 08/17/2007 14:55 EST-5 Thunderstorm Wind 51 kts. EG 0 0 26.00K 0.00K
WINTERVILLE CLARKE CO. GA 08/17/2007 14:55 EST-5 Hail 0.75 in. 0 0 0.00K 0.00K
HIRAM PAULDING CO. GA 08/17/2007 15:02 EST-5 Thunderstorm Wind 43 kts. EG 0 0 1.00K 0.00K
SANDY CROSS OGLETHORPE CO. GA 08/17/2007 15:05 EST-5 Thunderstorm Wind 43 kts. EG 0 0 2.00K 0.00K
WARNER ROBINS HOUSTON CO. GA 08/17/2007 15:07 EST-5 Hail 0.75 in. 0 0 0.00K 0.00K
BUCHANAN HARALSON CO. GA 08/17/2007 15:15 EST-5 Thunderstorm Wind 50 kts. EG 0 0 3.00K 0.00K
POWDER SPGS COBB CO. GA 08/17/2007 15:20 EST-5 Thunderstorm Wind 50 kts. EG 0 0 2.00K 0.00K
RUTLAND BIBB CO. GA 08/17/2007 15:25 EST-5 Hail 1.75 in. 0 0 0.00K 0.00K
RUTLAND BIBB CO. GA 08/17/2007 15:30 EST-5 Thunderstorm Wind 52 kts. EG 0 0 5.00K 0.00K
BUCKHEAD MORGAN CO. GA 08/17/2007 15:45 EST-5 Thunderstorm Wind 50 kts. EG 0 0 2.00K 0.00K
(MCN)WILSON ARPT MAC BIBB CO. GA 08/17/2007 15:52 EST-5 Thunderstorm Wind 54 kts. MG 0 0 0.00K 0.00K
GREENSBORO GREENE CO. GA 08/17/2007 16:00 EST-5 Hail 0.75 in. 0 0 0.00K 0.00K
KINGSTON BARTOW CO. GA 08/17/2007 16:10 EST-5 Thunderstorm Wind 50 kts. EG 0 0 2.00K 0.00K
ROME FLOYD CO. GA 08/17/2007 16:10 EST-5 Thunderstorm Wind 50 kts. EG 0 0 1.00K 0.00K
WOODSTOCK CHEROKEE CO. GA 08/17/2007 16:14 EST-5 Thunderstorm Wind 50 kts. EG 0 0 75.00K 0.00K
CONYERS ROCKDALE CO. GA 08/17/2007 16:20 EST-5 Thunderstorm Wind 50 kts. EG 0 0 2.00K 0.00K
GREENVILLE MERIWETHER CO. GA 08/17/2007 16:25 EST-5 Thunderstorm Wind 50 kts. EG 0 0 2.00K 0.00K
SANDY PLAINS COBB CO. GA 08/17/2007 16:25 EST-5 Hail 0.75 in. 0 0 0.00K 0.00K
ROSWELL FULTON CO. GA 08/17/2007 16:30 EST-5 Thunderstorm Wind 50 kts. EG 0 0 5.00K 0.00K
DUDLEY LAURENS CO. GA 08/17/2007 16:35 EST-5 Hail 0.75 in. 0 0 0.00K 0.00K
GRIFFIN SPALDING CO. GA 08/17/2007 16:46 EST-5 Thunderstorm Wind 50 kts. EG 0 0 2.00K 0.00K
PLAINS SUMTER CO. GA 08/17/2007 16:55 EST-5 Thunderstorm Wind 50 kts. EG 0 0 5.00K 0.00K
SANDERSVILLE WASHINGTON CO. GA 08/17/2007 16:55 EST-5 Hail 0.88 in. 0 0 0.00K 0.00K
ROBERTA CRAWFORD CO. GA 08/17/2007 17:00 EST-5 Hail 0.75 in. 0 0 0.00K 0.00K
WRENS JEFFERSON CO. GA 08/17/2007 17:00 EST-5 Thunderstorm Wind 50 kts. EG 0 0 2.00K 0.00K
PINE MTN HARRIS CO. GA 08/17/2007 17:04 EST-5 Thunderstorm Wind 50 kts. EG 0 0 3.00K 0.00K
LA GRANGE TROUP CO. GA 08/17/2007 17:05 EST-5 Lightning 0 0 50.00K 0.00K
LITHONIA DE KALB CO. GA 08/17/2007 17:15 EST-5 Thunderstorm Wind 50 kts. EG 0 0 3.00K 0.00K
LOUISVILLE JEFFERSON CO. GA 08/17/2007 17:24 EST-5 Thunderstorm Wind 52 kts. EG 0 0 4.00K 0.00K
MULBERRY GROVE HARRIS CO. GA 08/17/2007 17:25 EST-5 Thunderstorm Wind 50 kts. EG 0 0 6.00K 0.00K
HARRISON WASHINGTON CO. GA 08/17/2007 17:27 EST-5 Thunderstorm Wind 50 kts. EG 0 0 2.00K 0.00K
CENTERPOINT WEBSTER CO. GA 08/17/2007 17:30 EST-5 Thunderstorm Wind 50 kts. EG 0 0 3.00K 0.00K
CENTERPOINT WEBSTER CO. GA 08/17/2007 17:30 EST-5 Hail 1.00 in. 0 0 5.00K 0.00K
LAKEVIEW ESTATES ROCKDALE CO. GA 08/17/2007 17:30 EST-5 Thunderstorm Wind 52 kts. EG 0 0 5.00K 0.00K
WRIGHTSVILLE JOHNSON CO. GA 08/17/2007 17:35 EST-5 Thunderstorm Wind 54 kts. EG 0 0 35.00K 0.00K
BUTLER TAYLOR CO. GA 08/17/2007 17:45 EST-5 Thunderstorm Wind 52 kts. EG 0 0 3.00K 0.00K
ROBERTA CRAWFORD CO. GA 08/17/2007 17:45 EST-5 Thunderstorm Wind 50 kts. EG 0 0 2.00K 0.00K
MIDLAND MUSCOGEE CO. GA 08/17/2007 17:59 EST-5 Thunderstorm Wind 39 kts. EG 0 0 1.50K 0.00K
BLUNDALE EMANUEL CO. GA 08/17/2007 18:11 EST-5 Thunderstorm Wind 52 kts. EG 0 0 5.00K 0.00K
BRANTLEY MARION CO. GA 08/17/2007 18:24 EST-5 Thunderstorm Wind 50 kts. EG 0 0 2.00K 0.00K
PRESTON WEBSTER CO. GA 08/17/2007 18:25 EST-5 Hail 0.75 in. 0 0 0.00K 0.00K
PRESTON WEBSTER CO. GA 08/17/2007 18:25 EST-5 Lightning 0 0 1.00K 0.00K
RICHLAND STEWART CO. GA 08/17/2007 18:30 EST-5 Thunderstorm Wind 52 kts. EG 0 0 5.00K 0.00K
WARNER ROBINS HOUSTON CO. GA 08/17/2007 18:50 EST-5 Thunderstorm Wind 48 kts. EG 0 0 1.00K 0.00K
COLEY BLECKLEY CO. GA 08/17/2007 19:00 EST-5 Thunderstorm Wind 52 kts. EG 0 0 5.00K 0.00K
HAWKINSVILLE PULASKI CO. GA 08/17/2007 19:12 EST-5 Thunderstorm Wind 51 kts. EG 0 0 0.00K 0.00K
Totals: 0 0 278.50K 0.00K